createdAt,value
2018-01-08T00:00:35.452Z,98658.69
2018-01-08T00:01:40.148Z,98663.91
2018-01-08T00:02:44.975Z,98663.08
2018-01-08T00:03:49.639Z,98657.30
2018-01-08T00:04:54.800Z,98637.77
2018-01-08T00:05:59.613Z,98648.58
2018-01-08T00:07:04.412Z,98655.16
2018-01-08T00:08:09.133Z,98643.30
2018-01-08T00:09:13.861Z,98646.83
2018-01-08T00:10:21.002Z,98653.86
2018-01-08T00:11:26.281Z,98627.83
2018-01-08T00:12:31.019Z,98670.55
2018-01-08T00:13:35.861Z,98652.47
2018-01-08T00:14:40.599Z,98648.13
2018-01-08T00:15:45.344Z,98653.90
2018-01-08T00:16:50.115Z,98651.17
2018-01-08T00:17:55.214Z,98649.02
2018-01-08T00:18:59.958Z,98645.06
2018-01-08T00:20:04.782Z,98646.89
2018-01-08T00:21:09.474Z,98649.95
2018-01-08T00:22:14.191Z,98643.27
2018-01-08T00:23:18.918Z,98646.89
2018-01-08T00:24:23.956Z,98642.48
2018-01-08T00:25:28.691Z,98654.30
2018-01-08T00:26:33.400Z,98631.45
2018-01-08T00:27:38.131Z,98639.30
2018-01-08T00:28:44.132Z,98631.50
2018-01-08T00:29:49.435Z,98627.17
2018-01-08T00:30:54.627Z,98633.76
2018-01-08T00:31:59.436Z,98627.56
2018-01-08T00:33:04.204Z,98632.33
2018-01-08T00:34:08.969Z,98631.45
2018-01-08T00:35:13.620Z,98632.77
2018-01-08T00:36:18.292Z,98630.56
2018-01-08T00:37:23.399Z,98625.30
2018-01-08T00:38:28.222Z,98629.25
2018-01-08T00:39:33.109Z,98628.81
2018-01-08T00:40:37.823Z,98627.05
2018-01-08T00:41:42.523Z,98627.00
2018-01-08T00:42:47.221Z,98633.64
2018-01-08T00:43:52.215Z,98631.45
2018-01-08T00:44:56.919Z,98628.82
2018-01-08T00:46:02.663Z,98627.98
2018-01-08T00:47:07.201Z,98629.30
2018-01-08T00:48:11.725Z,98632.38
2018-01-08T00:49:16.231Z,98631.56
2018-01-08T00:50:21.199Z,98588.03
2018-01-08T00:51:25.616Z,98630.14
2018-01-08T00:52:30.317Z,98622.28
2018-01-08T00:53:35.015Z,98625.47
2018-01-08T00:54:40.053Z,98629.27
2018-01-08T00:55:44.673Z,98590.17
2018-01-08T00:56:49.818Z,98627.55
2018-01-08T00:57:54.431Z,98625.30
2018-01-08T00:58:59.025Z,98630.13
2018-01-08T01:00:04.447Z,98631.45
2018-01-08T01:01:10.157Z,98631.02
2018-01-08T01:02:14.951Z,98645.06
2018-01-08T01:03:19.966Z,98632.34
2018-01-08T01:04:24.663Z,98634.09
2018-01-08T01:05:29.368Z,98630.13
2018-01-08T01:06:34.045Z,98638.92
2018-01-08T01:07:38.810Z,98625.25
2018-01-08T01:08:43.610Z,98625.30
2018-01-08T01:09:50.007Z,98511.69
2018-01-08T01:10:54.746Z,98626.28
2018-01-08T01:11:59.456Z,98638.48
2018-01-08T01:13:04.138Z,98639.80
2018-01-08T01:14:08.870Z,98638.97
2018-01-08T01:15:13.574Z,98637.22
2018-01-08T01:16:18.607Z,98641.22
2018-01-08T01:17:24.407Z,98643.81
2018-01-08T01:18:29.136Z,98575.52
2018-01-08T01:19:33.866Z,98637.32
2018-01-08T01:20:38.546Z,98640.34
2018-01-08T01:21:43.724Z,98646.05
2018-01-08T01:22:49.055Z,98645.56
2018-01-08T01:23:53.752Z,98638.05
2018-01-08T01:24:58.457Z,98606.70
2018-01-08T01:26:03.216Z,98530.02
2018-01-08T01:27:08.779Z,98643.36
2018-01-08T01:28:13.581Z,98641.55
2018-01-08T01:29:18.678Z,98638.53
2018-01-08T01:30:23.418Z,98644.25
2018-01-08T01:31:28.112Z,98638.09
2018-01-08T01:32:32.837Z,98646.00
2018-01-08T01:33:37.496Z,98641.99
2018-01-08T01:34:42.236Z,98646.83
2018-01-08T01:35:47.368Z,98609.88
2018-01-08T01:36:52.178Z,98479.69
2018-01-08T01:37:56.892Z,98643.41
2018-01-08T01:39:01.606Z,98632.34
2018-01-08T01:40:07.057Z,98647.42
2018-01-08T01:41:11.778Z,98640.73
2018-01-08T01:42:17.415Z,98607.69
2018-01-08T01:43:22.111Z,98642.44
2018-01-08T01:44:26.878Z,98634.48
2018-01-08T01:45:31.585Z,98574.70
2018-01-08T01:46:36.297Z,98594.62
2018-01-08T01:47:40.958Z,98636.72
2018-01-08T01:48:46.185Z,98631.89
2018-01-08T01:49:50.990Z,98599.46
2018-01-08T01:50:55.714Z,98631.45
2018-01-08T01:52:00.391Z,98642.50
2018-01-08T01:53:05.123Z,98628.37
2018-01-08T01:54:10.507Z,98635.41
2018-01-08T01:55:17.851Z,98632.33
2018-01-08T01:56:22.552Z,98640.23
2018-01-08T01:57:27.271Z,98630.13
2018-01-08T01:58:32.065Z,98634.97
2018-01-08T01:59:36.740Z,98643.77
2018-01-08T02:00:41.458Z,98638.48
2018-01-08T02:01:47.761Z,98632.06
2018-01-08T02:02:52.439Z,98636.02
2018-01-08T02:03:57.271Z,98638.59
2018-01-08T02:05:02.000Z,98632.98
2018-01-08T02:06:06.726Z,98635.02
2018-01-08T02:07:11.429Z,98635.02
2018-01-08T02:08:16.557Z,98628.82
2018-01-08T02:09:21.320Z,98586.28
2018-01-08T02:10:26.017Z,98570.20
2018-01-08T02:11:30.649Z,98619.64
2018-01-08T02:12:35.247Z,98619.70
2018-01-08T02:13:39.832Z,98622.67
2018-01-08T02:14:44.866Z,98604.50
2018-01-08T02:15:49.535Z,98618.82
2018-01-08T02:16:54.208Z,98619.26
2018-01-08T02:17:58.933Z,98620.96
2018-01-08T02:19:03.680Z,98616.91
2018-01-08T02:20:09.042Z,98629.25
2018-01-08T02:21:14.221Z,98627.05
2018-01-08T02:22:18.911Z,98622.77
2018-01-08T02:23:23.626Z,98613.98
2018-01-08T02:24:28.490Z,98627.22
2018-01-08T02:25:33.238Z,98557.25
2018-01-08T02:26:37.943Z,98624.47
2018-01-08T02:27:42.645Z,98629.37
2018-01-08T02:28:47.346Z,98638.26
2018-01-08T02:29:52.059Z,98616.58
2018-01-08T02:30:56.918Z,98615.75
2018-01-08T02:32:01.613Z,98621.02
2018-01-08T02:33:06.785Z,98619.21
2018-01-08T02:34:11.451Z,98609.11
2018-01-08T02:35:16.178Z,98618.39
2018-01-08T02:36:20.887Z,98616.19
2018-01-08T02:37:25.627Z,98611.69
2018-01-08T02:38:30.305Z,98620.03
2018-01-08T02:39:35.578Z,98618.83
2018-01-08T02:40:40.144Z,98622.34
2018-01-08T02:41:44.754Z,98614.37
2018-01-08T02:42:49.466Z,98583.92
2018-01-08T02:43:54.896Z,98570.81
2018-01-08T02:44:59.599Z,98619.15
2018-01-08T02:46:04.702Z,98619.26
2018-01-08T02:47:09.441Z,98615.20
2018-01-08T02:48:14.156Z,98618.81
2018-01-08T02:49:18.843Z,98621.41
2018-01-08T02:50:24.446Z,98613.95
2018-01-08T02:51:29.176Z,98611.79
2018-01-08T02:52:34.383Z,98610.04
2018-01-08T02:53:39.103Z,98575.30
2018-01-08T02:54:43.831Z,98613.45
2018-01-08T02:55:48.568Z,98608.66
2018-01-08T02:56:53.315Z,98599.41
2018-01-08T02:57:57.910Z,98608.78
2018-01-08T02:59:02.994Z,98612.29
2018-01-08T03:00:07.736Z,98614.83
2018-01-08T03:01:12.324Z,98620.52
2018-01-08T03:02:16.993Z,98518.94
2018-01-08T03:03:21.765Z,98584.03
2018-01-08T03:04:26.488Z,98564.01
2018-01-08T03:05:31.535Z,98560.22
2018-01-08T03:06:36.183Z,98615.69
2018-01-08T03:07:40.861Z,98612.56
2018-01-08T03:08:45.526Z,98615.19
2018-01-08T03:09:50.300Z,98619.21
2018-01-08T03:10:55.116Z,98620.09
2018-01-08T03:12:00.464Z,98616.63
2018-01-08T03:13:05.279Z,98613.45
2018-01-08T03:14:10.078Z,98618.38
2018-01-08T03:15:14.745Z,98620.13
2018-01-08T03:16:19.413Z,98613.17
2018-01-08T03:17:24.094Z,98615.80
2018-01-08T03:18:29.300Z,98617.02
2018-01-08T03:19:34.063Z,98604.33
2018-01-08T03:20:38.812Z,98623.27
2018-01-08T03:21:43.584Z,98604.50
2018-01-08T03:22:48.376Z,98615.38
2018-01-08T03:23:53.168Z,98606.21
2018-01-08T03:24:58.331Z,98613.11
2018-01-08T03:26:03.165Z,98611.92
2018-01-08T03:27:07.929Z,98619.20
2018-01-08T03:28:12.720Z,98609.44
2018-01-08T03:29:17.608Z,98518.16
2018-01-08T03:30:22.389Z,98610.98
2018-01-08T03:31:27.808Z,98608.28
2018-01-08T03:32:32.563Z,98606.48
2018-01-08T03:33:37.290Z,98558.18
2018-01-08T03:34:42.003Z,98592.81
2018-01-08T03:35:46.834Z,98574.09
2018-01-08T03:36:51.575Z,98614.87
2018-01-08T03:37:56.821Z,98617.55
2018-01-08T03:39:01.582Z,98624.05
2018-01-08T03:40:06.404Z,98628.00
2018-01-08T03:41:11.147Z,98630.20
2018-01-08T03:42:15.863Z,98624.03
2018-01-08T03:43:20.596Z,98629.36
2018-01-08T03:44:25.719Z,98562.03
2018-01-08T03:45:30.483Z,98629.80
2018-01-08T03:46:35.235Z,98623.16
2018-01-08T03:47:39.988Z,98625.80
2018-01-08T03:48:44.728Z,98631.50
2018-01-08T03:49:49.455Z,98632.34
2018-01-08T03:50:54.606Z,98592.05
2018-01-08T03:51:59.327Z,98633.31
2018-01-08T03:53:04.043Z,98632.83
2018-01-08T03:54:08.832Z,98625.34
2018-01-08T03:55:13.533Z,98634.25
2018-01-08T03:56:18.555Z,98625.34
2018-01-08T03:57:24.342Z,98629.27
2018-01-08T03:58:29.178Z,98629.30
2018-01-08T03:59:33.805Z,98632.34
2018-01-08T04:00:38.488Z,98627.99
2018-01-08T04:01:43.125Z,98634.19
2018-01-08T04:02:48.040Z,98628.43
2018-01-08T04:03:52.498Z,98626.73
2018-01-08T04:04:57.028Z,98637.22
2018-01-08T04:06:01.517Z,98635.91
2018-01-08T04:07:05.956Z,98634.59
2018-01-08T04:08:10.417Z,98631.56
2018-01-08T04:09:15.493Z,98637.22
2018-01-08T04:10:20.177Z,98646.93
2018-01-08T04:11:24.863Z,98645.62
2018-01-08T04:12:29.600Z,98639.80
2018-01-08T04:13:34.282Z,98642.22
2018-01-08T04:14:38.979Z,98560.90
2018-01-08T04:15:44.402Z,98603.95
2018-01-08T04:16:49.072Z,98644.73
2018-01-08T04:17:53.872Z,98642.93
2018-01-08T04:18:58.634Z,98645.17
2018-01-08T04:20:03.404Z,98645.17
2018-01-08T04:21:08.187Z,98644.69
2018-01-08T04:22:13.342Z,98637.72
2018-01-08T04:23:18.808Z,98650.02
2018-01-08T04:24:23.576Z,98639.91
2018-01-08T04:25:28.163Z,98645.17
2018-01-08T04:26:32.914Z,98638.15
2018-01-08T04:27:37.723Z,98640.78
2018-01-08T04:28:42.861Z,98570.36
2018-01-08T04:29:47.697Z,98510.42
2018-01-08T04:30:52.371Z,98635.52
2018-01-08T04:31:57.136Z,98632.88
2018-01-08T04:33:01.956Z,98642.11
2018-01-08T04:34:07.676Z,98647.81
2018-01-08T04:35:12.927Z,98641.22
2018-01-08T04:36:17.773Z,98637.61
2018-01-08T04:37:22.581Z,98639.85
2018-01-08T04:38:27.369Z,98609.39
2018-01-08T04:39:32.197Z,98598.19
2018-01-08T04:40:37.037Z,98637.66
2018-01-08T04:41:42.164Z,98638.09
2018-01-08T04:42:46.984Z,98631.12
2018-01-08T04:43:51.800Z,98632.94
2018-01-08T04:44:56.602Z,98637.27
2018-01-08T04:46:02.434Z,98634.63
2018-01-08T04:47:07.055Z,98644.25
2018-01-08T04:48:12.133Z,98642.48
2018-01-08T04:49:16.767Z,98643.31
2018-01-08T04:50:21.373Z,98642.48
2018-01-08T04:51:25.966Z,98641.17
2018-01-08T04:52:30.667Z,98650.34
2018-01-08T04:53:36.309Z,98654.73
2018-01-08T04:54:41.418Z,98642.48
2018-01-08T04:55:46.217Z,98641.06
2018-01-08T04:56:50.995Z,98641.94
2018-01-08T04:57:55.700Z,98644.19
2018-01-08T04:59:00.329Z,98648.13
2018-01-08T05:00:04.987Z,98641.60
2018-01-08T05:01:09.974Z,98636.83
2018-01-08T05:02:14.607Z,98635.52
2018-01-08T05:03:19.284Z,98584.80
2018-01-08T05:04:23.929Z,98612.56
2018-01-08T05:05:29.131Z,98639.90
2018-01-08T05:06:33.759Z,98641.66
2018-01-08T05:07:39.640Z,98640.40
2018-01-08T05:08:44.386Z,98636.01
2018-01-08T05:09:48.919Z,98633.75
2018-01-08T05:10:53.486Z,98637.70
2018-01-08T05:11:58.149Z,98627.16
2018-01-08T05:13:02.874Z,98616.58
2018-01-08T05:14:08.056Z,98618.33
2018-01-08T05:15:12.778Z,98629.76
2018-01-08T05:16:17.434Z,98629.36
2018-01-08T05:17:22.232Z,98614.76
2018-01-08T05:18:26.912Z,98624.31
2018-01-08T05:19:31.702Z,98653.09
2018-01-08T05:20:36.796Z,98637.17
2018-01-08T05:21:41.489Z,98642.93
2018-01-08T05:22:46.036Z,98637.27
2018-01-08T05:23:50.762Z,98638.09
2018-01-08T05:24:55.475Z,98644.30
2018-01-08T05:26:00.247Z,98635.02
2018-01-08T05:27:05.283Z,98638.98
2018-01-08T05:28:10.026Z,98630.73
2018-01-08T05:29:14.703Z,98593.41
2018-01-08T05:30:19.317Z,98640.79
2018-01-08T05:31:24.053Z,98639.48
2018-01-08T05:32:28.827Z,98639.13
2018-01-08T05:33:34.065Z,98644.41
2018-01-08T05:34:38.824Z,98642.16
2018-01-08T05:35:43.615Z,98642.59
2018-01-08T05:36:48.610Z,98646.05
2018-01-08T05:37:53.410Z,98586.60
2018-01-08T05:38:58.175Z,98644.34
2018-01-08T05:40:03.476Z,98645.61
2018-01-08T05:41:08.298Z,98637.22
2018-01-08T05:42:13.390Z,98645.56
2018-01-08T05:43:18.213Z,98641.22
2018-01-08T05:44:23.203Z,98646.94
2018-01-08T05:45:28.019Z,98646.50
2018-01-08T05:46:33.199Z,98647.38
2018-01-08T05:47:37.933Z,98652.64
2018-01-08T05:48:42.640Z,98646.49
2018-01-08T05:49:47.425Z,98643.86
2018-01-08T05:50:52.215Z,98642.55
2018-01-08T05:51:57.000Z,98640.79
2018-01-08T05:53:02.213Z,98642.98
2018-01-08T05:54:07.204Z,98635.51
2018-01-08T05:55:12.082Z,98536.80
2018-01-08T05:56:17.018Z,98643.98
2018-01-08T05:57:21.880Z,98646.56
2018-01-08T05:58:26.779Z,98646.99
2018-01-08T05:59:31.962Z,98639.96
2018-01-08T06:00:36.898Z,98652.27
2018-01-08T06:01:41.764Z,98646.12
2018-01-08T06:02:46.572Z,98643.91
2018-01-08T06:03:51.331Z,98650.51
2018-01-08T06:04:56.101Z,98650.94
2018-01-08T06:06:01.264Z,98558.42
2018-01-08T06:07:05.999Z,98659.23
2018-01-08T06:08:10.686Z,98656.61
2018-01-08T06:09:15.447Z,98659.23
2018-01-08T06:10:20.202Z,98656.60
2018-01-08T06:11:25.134Z,98578.45
2018-01-08T06:12:30.275Z,98634.09
2018-01-08T06:13:35.023Z,98653.97
2018-01-08T06:14:39.711Z,98657.87
2018-01-08T06:15:44.412Z,98556.23
2018-01-08T06:16:50.419Z,98608.35
2018-01-08T06:17:55.128Z,98651.37
2018-01-08T06:19:00.261Z,98656.64
2018-01-08T06:20:04.964Z,98650.01
2018-01-08T06:21:09.725Z,98648.69
2018-01-08T06:22:14.424Z,98641.63
2018-01-08T06:23:19.434Z,98642.11
2018-01-08T06:24:24.216Z,98648.70
2018-01-08T06:25:29.431Z,98644.74
2018-01-08T06:26:34.170Z,98644.73
2018-01-08T06:27:38.886Z,98642.05
2018-01-08T06:28:43.663Z,98645.23
2018-01-08T06:29:48.446Z,98642.16
2018-01-08T06:30:53.281Z,98633.81
2018-01-08T06:31:58.480Z,98559.59
2018-01-08T06:33:03.250Z,98631.56
2018-01-08T06:34:08.400Z,98645.67
2018-01-08T06:35:13.248Z,98643.42
2018-01-08T06:36:18.121Z,98640.39
2018-01-08T06:37:22.986Z,98635.56
2018-01-08T06:38:28.211Z,98633.80
2018-01-08T06:39:33.183Z,98632.66
2018-01-08T06:40:38.035Z,98642.70
2018-01-08T06:41:42.872Z,98639.57
2018-01-08T06:42:47.652Z,98643.04
2018-01-08T06:43:52.756Z,98576.19
2018-01-08T06:44:57.950Z,98603.41
2018-01-08T06:46:02.753Z,98639.08
2018-01-08T06:47:07.476Z,98636.44
2018-01-08T06:48:12.211Z,98627.22
2018-01-08T06:49:16.977Z,98629.37
2018-01-08T06:50:21.727Z,98640.34
2018-01-08T06:51:26.951Z,98620.70
2018-01-08T06:52:31.682Z,98640.78
2018-01-08T06:53:36.467Z,98639.91
2018-01-08T06:54:41.273Z,98640.78
2018-01-08T06:55:45.960Z,98640.79
2018-01-08T06:56:50.689Z,98515.78
2018-01-08T06:57:55.874Z,98574.86
2018-01-08T06:59:00.662Z,98637.05
2018-01-08T07:00:05.820Z,98636.95
2018-01-08T07:01:10.536Z,98641.44
2018-01-08T07:02:15.558Z,98638.25
2018-01-08T07:03:20.280Z,98642.59
2018-01-08T07:04:25.763Z,98638.16
2018-01-08T07:05:31.806Z,98638.09
2018-01-08T07:06:36.609Z,98642.55
2018-01-08T07:07:41.445Z,98639.47
2018-01-08T07:08:46.203Z,98618.39
2018-01-08T07:09:51.253Z,98632.22
2018-01-08T07:10:57.490Z,98580.53
2018-01-08T07:12:02.371Z,98648.69
2018-01-08T07:13:07.103Z,98647.38
2018-01-08T07:14:11.986Z,98646.61
2018-01-08T07:15:16.698Z,98647.16
2018-01-08T07:16:21.376Z,98649.30
2018-01-08T07:17:26.528Z,98640.89
2018-01-08T07:18:31.373Z,98647.97
2018-01-08T07:19:36.183Z,98565.83
2018-01-08T07:20:40.960Z,98646.50
2018-01-08T07:21:45.835Z,98638.33
2018-01-08T07:22:50.641Z,98643.53
2018-01-08T07:23:55.914Z,98470.16
2018-01-08T07:25:00.728Z,98642.59
2018-01-08T07:26:05.646Z,98639.48
2018-01-08T07:27:10.430Z,98646.55
2018-01-08T07:28:15.177Z,98633.83
2018-01-08T07:29:20.231Z,98630.25
2018-01-08T07:30:25.481Z,98630.34
2018-01-08T07:31:30.207Z,98640.45
2018-01-08T07:32:34.971Z,98635.58
2018-01-08T07:33:40.301Z,98633.81
2018-01-08T07:34:45.183Z,98626.34
2018-01-08T07:35:49.801Z,98626.73
2018-01-08T07:36:55.036Z,98594.12
2018-01-08T07:37:59.859Z,98628.94
2018-01-08T07:39:04.944Z,98630.30
2018-01-08T07:40:09.790Z,98625.35
2018-01-08T07:41:14.537Z,98633.66
2018-01-08T07:42:19.678Z,98635.78
2018-01-08T07:43:25.017Z,98624.26
2018-01-08T07:44:29.881Z,98619.88
2018-01-08T07:45:34.747Z,98441.87
2018-01-08T07:46:39.827Z,98623.81
2018-01-08T07:47:44.663Z,98627.28
2018-01-08T07:48:49.673Z,98539.00
2018-01-08T07:49:54.946Z,98620.25
2018-01-08T07:51:01.485Z,98615.36
2018-01-08T07:52:06.888Z,98598.84
2018-01-08T07:53:12.959Z,98547.27
2018-01-08T07:54:18.020Z,98614.53
2018-01-08T07:55:22.869Z,98615.80
2018-01-08T07:56:28.510Z,98614.48
2018-01-08T07:57:40.614Z,98471.64
2018-01-08T07:58:45.566Z,98564.98
2018-01-08T07:59:50.323Z,98607.45
2018-01-08T08:00:55.109Z,98606.58
2018-01-08T08:01:59.937Z,98609.17
2018-01-08T08:03:05.058Z,98588.76
2018-01-08T08:04:10.773Z,98405.06
2018-01-08T08:05:15.484Z,98565.32
2018-01-08T08:06:20.241Z,98571.89
2018-01-08T08:07:24.937Z,98615.31
2018-01-08T08:08:29.772Z,98611.36
2018-01-08T08:09:34.916Z,98610.97
2018-01-08T08:10:39.682Z,98613.22
2018-01-08T08:11:44.377Z,98607.45
2018-01-08T08:12:49.111Z,98605.66
2018-01-08T08:13:53.858Z,98613.55
2018-01-08T08:14:58.628Z,98611.41
2018-01-08T08:16:03.806Z,98521.88
2018-01-08T08:17:08.604Z,98600.38
2018-01-08T08:18:13.447Z,98603.45
2018-01-08T08:19:18.263Z,98596.42
2018-01-08T08:20:23.004Z,98603.02
2018-01-08T08:21:28.094Z,98511.30
2018-01-08T08:22:33.244Z,98537.95
2018-01-08T08:23:37.965Z,98604.33
2018-01-08T08:24:42.839Z,98600.86
2018-01-08T08:25:47.599Z,98596.48
2018-01-08T08:26:52.382Z,98566.64
2018-01-08T08:27:57.157Z,98599.45
2018-01-08T08:29:02.348Z,98581.92
2018-01-08T08:30:07.043Z,98596.97
2018-01-08T08:31:11.796Z,98597.36
2018-01-08T08:32:17.705Z,98596.44
2018-01-08T08:33:22.457Z,98595.60
2018-01-08T08:34:27.162Z,98592.92
2018-01-08T08:35:32.398Z,98601.69
2018-01-08T08:36:37.160Z,98591.16
2018-01-08T08:37:42.148Z,98587.64
2018-01-08T08:38:46.827Z,98589.39
2018-01-08T08:39:51.449Z,98581.92
2018-01-08T08:40:56.387Z,98587.25
2018-01-08T08:42:01.475Z,98581.48
2018-01-08T08:43:06.255Z,98493.96
2018-01-08T08:44:12.191Z,98584.75
2018-01-08T08:45:16.922Z,98586.33
2018-01-08T08:46:21.644Z,98594.22
2018-01-08T08:47:26.399Z,98595.09
2018-01-08T08:48:31.666Z,98599.01
2018-01-08T08:49:36.325Z,98591.10
2018-01-08T08:50:40.947Z,98551.27
2018-01-08T08:51:45.599Z,98577.70
2018-01-08T08:52:50.207Z,98588.07
2018-01-08T08:53:55.883Z,98586.88
2018-01-08T08:55:01.234Z,98588.89
2018-01-08T08:56:05.846Z,98587.97
2018-01-08T08:57:10.521Z,98594.55
2018-01-08T08:58:18.717Z,98499.52
2018-01-08T08:59:20.103Z,98602.95
2018-01-08T09:00:24.823Z,98592.86
2018-01-08T09:01:30.161Z,98603.84
2018-01-08T09:02:34.977Z,98596.09
2018-01-08T09:03:39.805Z,98597.42
2018-01-08T09:04:44.687Z,98594.67
2018-01-08T09:05:50.446Z,98595.09
2018-01-08T09:06:55.272Z,98585.38
2018-01-08T09:08:00.346Z,98591.53
2018-01-08T09:09:05.450Z,98598.61
2018-01-08T09:10:10.631Z,98590.70
2018-01-08T09:11:15.284Z,98527.02
2018-01-08T09:12:19.901Z,98591.37
2018-01-08T09:13:24.702Z,98600.05
2018-01-08T09:14:29.931Z,98592.03
2018-01-08T09:15:36.603Z,98467.97
2018-01-08T09:16:41.396Z,98600.77
2018-01-08T09:17:46.126Z,98593.28
2018-01-08T09:18:50.906Z,98587.15
2018-01-08T09:19:55.639Z,98585.94
2018-01-08T09:21:00.799Z,98525.21
2018-01-08T09:22:05.510Z,98600.38
2018-01-08T09:23:10.288Z,98600.83
2018-01-08T09:24:15.068Z,98592.95
2018-01-08T09:25:20.735Z,98599.95
2018-01-08T09:26:25.446Z,98594.72
2018-01-08T09:27:30.956Z,98596.53
2018-01-08T09:28:35.665Z,98594.72
2018-01-08T09:29:40.408Z,98596.86
2018-01-08T09:30:45.180Z,98593.40
2018-01-08T09:31:50.056Z,98589.78
2018-01-08T09:32:54.813Z,98593.80
2018-01-08T09:34:00.232Z,98600.81
2018-01-08T09:35:05.055Z,98559.23
2018-01-08T09:36:09.846Z,98597.41
2018-01-08T09:37:15.536Z,98632.05
2018-01-08T09:38:20.324Z,98607.84
2018-01-08T09:39:25.151Z,98602.56
2018-01-08T09:40:30.503Z,98586.77
2018-01-08T09:41:35.304Z,98603.84
2018-01-08T09:42:40.130Z,98577.40
2018-01-08T09:43:46.005Z,98589.77
2018-01-08T09:44:50.823Z,98594.55
2018-01-08T09:45:55.595Z,98597.13
2018-01-08T09:47:00.702Z,98598.56
2018-01-08T09:48:05.435Z,98507.15
2018-01-08T09:49:10.109Z,98572.70
2018-01-08T09:50:14.727Z,98597.13
2018-01-08T09:51:19.391Z,98593.95
2018-01-08T09:52:24.185Z,98557.96
2018-01-08T09:53:29.288Z,98562.84
2018-01-08T09:54:35.571Z,98604.97
2018-01-08T09:55:41.458Z,98608.92
2018-01-08T09:56:46.169Z,98421.37
2018-01-08T09:57:51.000Z,98603.17
2018-01-08T09:58:55.803Z,98602.28
2018-01-08T10:00:01.013Z,98589.28
2018-01-08T10:01:05.794Z,98616.73
2018-01-08T10:02:10.870Z,98540.40
2018-01-08T10:03:20.885Z,98602.22
2018-01-08T10:04:32.420Z,98600.04
2018-01-08T10:05:43.185Z,98596.95
2018-01-08T10:06:53.623Z,98600.46
2018-01-08T10:08:03.431Z,98599.53
2018-01-08T10:09:14.484Z,98594.64
2018-01-08T10:10:24.389Z,98591.12
2018-01-08T10:11:35.533Z,98583.98
2018-01-08T10:12:45.536Z,98582.72
2018-01-08T10:13:55.365Z,98582.27
2018-01-08T10:15:06.218Z,98582.27
2018-01-08T10:16:17.677Z,98573.42
2018-01-08T10:17:27.975Z,98580.38
2018-01-08T10:18:32.488Z,98578.44
2018-01-08T10:19:44.201Z,98574.42
2018-01-08T10:20:48.979Z,98573.80
2018-01-08T10:21:54.106Z,98568.39
2018-01-08T10:22:58.652Z,98573.17
2018-01-08T10:24:03.606Z,98570.46
2018-01-08T10:25:08.140Z,98571.67
2018-01-08T10:26:12.752Z,98572.98
2018-01-08T10:27:20.202Z,98582.67
2018-01-08T10:28:26.457Z,98563.82
2018-01-08T10:29:31.198Z,98569.97
2018-01-08T10:30:36.286Z,98466.67
2018-01-08T10:31:41.064Z,98542.73
2018-01-08T10:32:45.789Z,98572.03
2018-01-08T10:33:50.578Z,98572.94
2018-01-08T10:34:55.376Z,98355.97
2018-01-08T10:36:00.457Z,98535.83
2018-01-08T10:37:05.909Z,98555.33
2018-01-08T10:38:10.888Z,98507.02
2018-01-08T10:39:16.188Z,98549.19
2018-01-08T10:40:21.163Z,98551.44
2018-01-08T10:41:31.854Z,98557.59
2018-01-08T10:42:41.688Z,98558.42
2018-01-08T10:43:53.509Z,98546.97
2018-01-08T10:45:04.288Z,98558.36
2018-01-08T10:46:16.208Z,98513.41
2018-01-08T10:47:27.293Z,98556.14
2018-01-08T10:48:38.155Z,98547.81
2018-01-08T10:49:47.706Z,98551.32
2018-01-08T10:50:57.169Z,98560.08
2018-01-08T10:52:01.133Z,98554.79
2018-01-08T10:53:06.391Z,98399.80
2018-01-08T10:54:11.887Z,98553.91
2018-01-08T10:55:20.219Z,98387.59
2018-01-08T10:56:24.856Z,98557.00
2018-01-08T10:57:29.563Z,98548.69
2018-01-08T10:58:35.255Z,98555.22
2018-01-08T10:59:39.975Z,98471.06
2018-01-08T11:00:45.519Z,98514.72
2018-01-08T11:01:55.207Z,98525.34
2018-01-08T11:04:07.330Z,98546.49
2018-01-08T11:05:12.185Z,98464.05
2018-01-08T11:06:16.992Z,98559.67
2018-01-08T11:07:21.636Z,98538.65
2018-01-08T11:08:26.776Z,98531.53
2018-01-08T11:09:31.512Z,98560.94
2018-01-08T11:10:37.145Z,98416.17
2018-01-08T11:11:41.997Z,98529.67
2018-01-08T11:12:46.823Z,98531.45
2018-01-08T11:13:51.691Z,98537.14
2018-01-08T11:14:56.875Z,98534.89
2018-01-08T11:16:02.176Z,98531.38
2018-01-08T11:17:06.919Z,98526.55
2018-01-08T11:18:11.937Z,98530.04
2018-01-08T11:19:16.703Z,98530.87
2018-01-08T11:20:21.448Z,98525.95
2018-01-08T11:21:27.450Z,98529.60
2018-01-08T11:22:32.215Z,98523.02
2018-01-08T11:23:37.060Z,98534.94
2018-01-08T11:24:41.836Z,98525.78
2018-01-08T11:25:46.589Z,98523.52
2018-01-08T11:26:51.366Z,98517.24
2018-01-08T11:27:56.494Z,98530.42
2018-01-08T11:29:01.310Z,98522.56
2018-01-08T11:30:06.122Z,98463.78
2018-01-08T11:31:10.876Z,98514.27
2018-01-08T11:32:15.746Z,98524.33
2018-01-08T11:33:20.561Z,98522.13
2018-01-08T11:34:25.784Z,98518.17
2018-01-08T11:35:30.526Z,98512.52
2018-01-08T11:36:35.393Z,98522.70
2018-01-08T11:37:40.213Z,98520.95
2018-01-08T11:38:45.025Z,98509.52
2018-01-08T11:39:49.876Z,98332.25
2018-01-08T11:40:55.225Z,98519.30
2018-01-08T11:42:01.076Z,98486.78
2018-01-08T11:43:06.110Z,98504.23
2018-01-08T11:44:10.885Z,98517.00
2018-01-08T11:45:15.662Z,98513.47
2018-01-08T11:46:20.431Z,98508.14
2018-01-08T11:47:26.915Z,98508.20
2018-01-08T11:48:32.663Z,98508.20
2018-01-08T11:49:37.419Z,98504.25
2018-01-08T11:50:42.442Z,98481.95
2018-01-08T11:51:47.200Z,98495.48
2018-01-08T11:52:51.987Z,98454.33
2018-01-08T11:53:57.121Z,98383.74
2018-01-08T11:55:01.997Z,98461.16
2018-01-08T11:56:06.786Z,98477.36
2018-01-08T11:57:11.632Z,98484.47
2018-01-08T11:58:16.371Z,98485.78
2018-01-08T11:59:21.242Z,98486.22
2018-01-08T12:00:26.374Z,98476.98
2018-01-08T12:01:31.652Z,98486.25
2018-01-08T12:02:36.427Z,98409.86
2018-01-08T12:03:41.204Z,98482.27
2018-01-08T12:04:45.952Z,98479.63
2018-01-08T12:05:50.708Z,98472.52
2018-01-08T12:06:55.933Z,98471.14
2018-01-08T12:08:01.503Z,98474.27
2018-01-08T12:09:06.363Z,98468.06
2018-01-08T12:10:11.457Z,98469.42
2018-01-08T12:11:16.244Z,98461.96
2018-01-08T12:12:21.007Z,98465.05
2018-01-08T12:13:27.141Z,98482.35
2018-01-08T12:14:32.773Z,98470.33
2018-01-08T12:15:38.350Z,98461.53
2018-01-08T12:16:43.819Z,98460.72
2018-01-08T12:17:49.660Z,98448.78
2018-01-08T12:18:55.139Z,98329.53
2018-01-08T12:20:01.219Z,98451.73
2018-01-08T12:21:06.516Z,98450.40
2018-01-08T12:22:11.932Z,98450.31
2018-01-08T12:23:18.368Z,98443.80
2018-01-08T12:24:24.871Z,98312.55
2018-01-08T12:25:30.674Z,98453.47
2018-01-08T12:26:37.201Z,98333.70
2018-01-08T12:27:42.777Z,98409.00
2018-01-08T12:28:48.227Z,98446.44
2018-01-08T12:29:53.606Z,98439.42
2018-01-08T12:31:00.630Z,98441.60
2018-01-08T12:32:06.118Z,98439.78
2018-01-08T12:33:11.740Z,98446.31
2018-01-08T12:34:17.121Z,98422.71
2018-01-08T12:35:23.364Z,98433.47
2018-01-08T12:36:28.862Z,98408.41
2018-01-08T12:37:34.446Z,98432.98
2018-01-08T12:38:40.076Z,98419.92
2018-01-08T12:39:46.294Z,98435.09
2018-01-08T20:08:29.016Z,98234.98
2018-01-08T20:09:37.410Z,98217.98
2018-01-08T20:10:44.250Z,98223.69
2018-01-08T20:11:52.694Z,98219.40
2018-01-08T20:13:02.251Z,98215.01
2018-01-08T20:14:10.539Z,98225.73